createdAt,value
2017-06-18T00:00:16.054Z,13.12
2017-06-18T00:01:28.556Z,13.17
2017-06-18T00:02:41.097Z,13.12
2017-06-18T00:03:53.321Z,13.12
2017-06-18T00:05:05.566Z,13.16
2017-06-18T00:06:18.092Z,13.03
2017-06-18T00:07:30.025Z,13.08
2017-06-18T00:08:42.535Z,13.01
2017-06-18T00:09:54.469Z,13.05
2017-06-18T00:11:07.009Z,12.99
2017-06-18T00:12:19.567Z,12.94
2017-06-18T00:13:31.786Z,12.9
2017-06-18T00:14:44.030Z,12.95
2017-06-18T00:15:56.573Z,12.99
2017-06-18T00:17:08.807Z,12.91
2017-06-18T00:18:21.322Z,12.88
2017-06-18T00:19:33.862Z,12.8
2017-06-18T00:20:46.376Z,12.86
2017-06-18T00:21:58.610Z,12.86
2017-06-18T00:23:10.531Z,12.84
2017-06-18T00:24:22.789Z,12.75
2017-06-18T00:25:35.319Z,12.75
2017-06-18T00:26:47.544Z,12.87
2017-06-18T00:27:59.781Z,12.72
2017-06-18T00:29:12.010Z,12.73
2017-06-18T00:30:24.257Z,12.66
2017-06-18T00:31:36.765Z,12.78
2017-06-18T00:32:49.019Z,12.78
2017-06-18T00:34:01.235Z,12.73
2017-06-18T00:35:13.761Z,12.69
2017-06-18T00:36:26.299Z,12.66
2017-06-18T00:37:39.145Z,12.63
2017-06-18T00:38:51.352Z,12.66
2017-06-18T00:40:03.572Z,12.68
2017-06-18T00:41:16.115Z,12.66
2017-06-18T00:42:28.629Z,12.65
2017-06-18T00:43:41.187Z,12.63
2017-06-18T00:44:53.423Z,12.69
2017-06-18T00:46:05.949Z,12.63
2017-06-18T00:47:18.451Z,12.65
2017-06-18T00:48:30.987Z,12.51
2017-06-18T00:49:43.204Z,12.61
2017-06-18T00:50:55.725Z,12.57
2017-06-18T00:52:08.273Z,12.54
2017-06-18T00:53:20.220Z,12.53
2017-06-18T00:54:32.198Z,12.54
2017-06-18T00:55:44.733Z,12.44
2017-06-18T00:56:56.954Z,12.4
2017-06-18T00:58:09.479Z,12.44
2017-06-18T00:59:21.727Z,12.43
2017-06-18T01:00:34.251Z,12.45
2017-06-18T01:01:46.802Z,12.44
2017-06-18T01:02:58.734Z,12.43
2017-06-18T01:04:10.687Z,12.37
2017-06-18T01:05:22.912Z,12.4
2017-06-18T01:06:35.446Z,12.35
2017-06-18T01:07:48.016Z,12.37
2017-06-18T01:09:00.263Z,12.28
2017-06-18T01:10:12.796Z,12.28
2017-06-18T01:11:25.357Z,12.33
2017-06-18T01:12:37.916Z,12.32
2017-06-18T01:13:50.479Z,12.32
2017-06-18T01:15:02.692Z,12.29
2017-06-18T01:16:14.942Z,12.29
2017-06-18T01:17:27.471Z,12.23
2017-06-18T01:18:39.688Z,12.23
2017-06-18T01:19:52.190Z,12.21
2017-06-18T01:21:04.691Z,12.2
2017-06-18T01:22:16.622Z,12.3
2017-06-18T01:23:28.552Z,12.26
2017-06-18T01:24:41.110Z,12.21
2017-06-18T01:25:53.614Z,12.25
2017-06-18T01:27:06.139Z,12.18
2017-06-18T01:28:18.374Z,12.21
2017-06-18T01:29:30.900Z,12.12
2017-06-18T01:30:43.119Z,12.17
2017-06-18T01:31:55.638Z,12.2
2017-06-18T01:33:07.863Z,12.17
2017-06-18T01:34:20.390Z,12.12
2017-06-18T01:35:32.649Z,12.08
2017-06-18T01:36:45.171Z,12.18
2017-06-18T01:37:57.719Z,12.07
2017-06-18T01:39:09.972Z,12.11
2017-06-18T01:40:22.507Z,12.05
2017-06-18T01:41:34.729Z,12.11
2017-06-18T01:42:47.241Z,12.07
2017-06-18T01:43:59.784Z,12.07
2017-06-18T01:45:12.348Z,12.1
2017-06-18T01:46:24.274Z,12.07
2017-06-18T01:47:36.795Z,12.15
2017-06-18T01:48:49.342Z,12
2017-06-18T01:50:01.885Z,12.08
2017-06-18T01:51:13.780Z,12.03
2017-06-18T01:52:26.002Z,12.07
2017-06-18T01:53:38.549Z,12.07
2017-06-18T01:54:51.108Z,11.96
2017-06-18T01:56:03.663Z,12
2017-06-18T01:57:16.211Z,12.08
2017-06-18T01:58:28.750Z,12.02
2017-06-18T01:59:40.970Z,12.07
2017-06-18T02:00:53.225Z,11.95
2017-06-18T02:02:05.450Z,11.97
2017-06-18T02:03:17.688Z,11.97
2017-06-18T02:04:30.187Z,12.11
2017-06-18T02:05:42.722Z,11.93
2017-06-18T02:06:55.251Z,11.97
2017-06-18T02:08:07.766Z,11.95
2017-06-18T02:09:19.997Z,11.95
2017-06-18T02:10:31.938Z,12.03
2017-06-18T02:11:44.462Z,11.95
2017-06-18T02:12:56.980Z,11.99
2017-06-18T02:14:09.496Z,11.95
2017-06-18T02:15:21.415Z,11.93
2017-06-18T02:16:33.921Z,11.89
2017-06-18T02:17:46.459Z,11.88
2017-06-18T02:18:59.002Z,11.91
2017-06-18T02:20:11.255Z,11.91
2017-06-18T02:21:23.480Z,11.95
2017-06-18T02:22:36.039Z,11.91
2017-06-18T02:23:48.560Z,11.93
2017-06-18T02:25:00.518Z,11.93
2017-06-18T02:26:13.360Z,11.99
2017-06-18T02:27:25.898Z,11.91
2017-06-18T02:28:38.427Z,11.86
2017-06-18T02:29:50.651Z,11.86
2017-06-18T02:31:02.861Z,11.95
2017-06-18T02:32:15.366Z,11.88
2017-06-18T02:33:27.885Z,11.81
2017-06-18T02:34:40.426Z,11.86
2017-06-18T02:35:52.678Z,11.81
2017-06-18T02:37:05.201Z,11.85
2017-06-18T02:38:17.423Z,11.83
2017-06-18T02:39:29.668Z,11.85
2017-06-18T02:40:41.903Z,11.83
2017-06-18T02:41:54.436Z,11.8
2017-06-18T02:43:06.978Z,11.85
2017-06-18T02:44:19.524Z,11.81
2017-06-18T02:45:32.044Z,11.8
2017-06-18T02:46:44.537Z,11.8
2017-06-18T02:47:56.790Z,11.8
2017-06-18T02:49:09.335Z,11.83
2017-06-18T02:50:21.600Z,11.7
2017-06-18T02:51:33.817Z,11.73
2017-06-18T02:52:46.345Z,11.74
2017-06-18T02:53:58.866Z,11.76
2017-06-18T02:55:10.815Z,11.7
2017-06-18T02:56:23.361Z,11.74
2017-06-18T02:57:35.902Z,11.71
2017-06-18T02:58:48.425Z,11.71
2017-06-18T03:00:00.945Z,11.76
2017-06-18T03:01:13.467Z,11.7
2017-06-18T03:02:25.990Z,11.7
2017-06-18T03:03:38.534Z,11.74
2017-06-18T03:04:50.772Z,11.7
2017-06-18T03:06:03.329Z,11.56
2017-06-18T03:07:15.850Z,11.59
2017-06-18T03:08:28.392Z,11.58
2017-06-18T03:09:41.234Z,11.58
2017-06-18T03:10:53.480Z,11.58
2017-06-18T03:12:05.705Z,11.55
2017-06-18T03:13:17.918Z,11.62
2017-06-18T03:14:30.463Z,11.58
2017-06-18T03:15:42.993Z,11.51
2017-06-18T03:16:55.512Z,11.51
2017-06-18T03:18:07.130Z,11.55
2017-06-18T03:19:19.676Z,11.53
2017-06-18T03:20:31.894Z,11.44
2017-06-18T03:21:44.441Z,11.45
2017-06-18T03:22:56.693Z,11.49
2017-06-18T03:24:09.218Z,11.49
2017-06-18T03:25:21.735Z,11.44
2017-06-18T03:26:34.252Z,11.48
2017-06-18T03:27:46.801Z,11.44
2017-06-18T03:28:59.002Z,11.43
2017-06-18T03:30:11.236Z,11.52
2017-06-18T03:31:23.789Z,11.44
2017-06-18T03:32:36.310Z,11.55
2017-06-18T03:33:48.840Z,11.45
2017-06-18T03:35:01.376Z,11.49
2017-06-18T03:36:13.928Z,11.55
2017-06-18T03:37:25.562Z,11.52
2017-06-18T03:38:38.095Z,11.53
2017-06-18T03:39:50.303Z,11.55
2017-06-18T03:41:02.813Z,11.53
2017-06-18T03:42:15.320Z,11.51
2017-06-18T03:43:27.526Z,11.58
2017-06-18T03:44:39.751Z,11.53
2017-06-18T03:45:52.261Z,11.59
2017-06-18T03:47:04.788Z,11.63
2017-06-18T03:48:17.299Z,11.52
2017-06-18T03:49:29.857Z,11.55
2017-06-18T03:50:42.120Z,11.6
2017-06-18T03:51:54.348Z,11.65
2017-06-18T03:53:06.872Z,11.63
2017-06-18T03:54:19.114Z,11.62
2017-06-18T03:55:31.357Z,11.7
2017-06-18T03:56:43.903Z,11.74
2017-06-18T03:57:56.423Z,11.73
2017-06-18T03:59:08.663Z,11.68
2017-06-18T04:00:20.913Z,11.68
2017-06-18T04:01:33.455Z,11.74
2017-06-18T04:02:45.659Z,11.77
2017-06-18T04:03:58.172Z,11.83
2017-06-18T04:05:10.421Z,11.77
2017-06-18T04:06:22.965Z,11.8
2017-06-18T04:07:35.496Z,11.81
2017-06-18T04:08:48.037Z,11.8
2017-06-18T04:10:00.554Z,11.78
2017-06-18T04:11:12.183Z,11.83
2017-06-18T04:12:24.722Z,11.88
2017-06-18T04:13:36.941Z,11.85
2017-06-18T04:14:49.485Z,11.93
2017-06-18T04:16:02.017Z,11.97
2017-06-18T04:17:14.237Z,11.93
2017-06-18T04:18:26.774Z,11.89
2017-06-18T04:19:38.997Z,11.97
2017-06-18T04:20:50.905Z,12.07
2017-06-18T04:22:03.459Z,12.03
2017-06-18T04:23:15.981Z,12.07
2017-06-18T04:24:28.480Z,12.02
2017-06-18T04:25:40.702Z,12.11
2017-06-18T04:26:53.230Z,12.18
2017-06-18T04:28:05.769Z,12.26
2017-06-18T04:29:18.311Z,12.28
2017-06-18T04:30:30.561Z,12.32
2017-06-18T04:31:43.094Z,12.4
2017-06-18T04:32:55.631Z,12.43
2017-06-18T04:34:08.145Z,12.53
2017-06-18T04:35:20.690Z,12.55
2017-06-18T04:36:33.211Z,12.62
2017-06-18T04:37:45.768Z,12.68
2017-06-18T04:38:58.003Z,12.73
2017-06-18T04:40:10.552Z,12.88
2017-06-18T04:41:23.056Z,12.84
2017-06-18T04:42:35.277Z,12.9
2017-06-18T04:43:47.804Z,12.9
2017-06-18T04:45:00.018Z,12.98
2017-06-18T04:46:12.228Z,13.06
2017-06-18T04:47:24.457Z,13.01
2017-06-18T04:48:36.670Z,13.13
2017-06-18T04:49:48.866Z,13.2
2017-06-18T04:51:01.386Z,13.23
2017-06-18T04:52:13.616Z,13.31
2017-06-18T04:53:26.162Z,13.27
2017-06-18T04:54:38.699Z,13.33
2017-06-18T04:55:50.648Z,13.49
2017-06-18T04:57:02.895Z,13.52
2017-06-18T04:58:15.101Z,13.54
2017-06-18T04:59:27.012Z,13.52
2017-06-18T05:00:39.536Z,13.58
2017-06-18T05:01:51.737Z,13.68
2017-06-18T05:03:04.282Z,13.64
2017-06-18T05:04:16.496Z,13.78
2017-06-18T05:05:28.724Z,13.8
2017-06-18T05:06:41.251Z,13.79
2017-06-18T05:07:53.766Z,13.91
2017-06-18T05:09:06.293Z,13.97
2017-06-18T05:10:18.522Z,14.04
2017-06-18T05:11:31.054Z,14.12
2017-06-18T05:12:43.285Z,14.25
2017-06-18T05:13:55.827Z,14.48
2017-06-18T05:15:08.347Z,14.49
2017-06-18T05:16:20.563Z,14.55
2017-06-18T05:17:33.100Z,14.59
2017-06-18T05:18:45.632Z,14.7
2017-06-18T05:19:58.130Z,14.87
2017-06-18T05:21:10.368Z,15.02
2017-06-18T05:22:22.864Z,15.18
2017-06-18T05:23:35.381Z,15.33
2017-06-18T05:24:47.581Z,15.59
2017-06-18T05:26:00.093Z,15.67
2017-06-18T05:27:12.607Z,15.96
2017-06-18T05:28:24.861Z,16.12
2017-06-18T05:29:37.417Z,16.46
2017-06-18T05:30:49.952Z,16.61
2017-06-18T05:32:02.456Z,16.84
2017-06-18T05:33:14.977Z,17.2
2017-06-18T05:34:27.523Z,17.46
2017-06-18T05:35:40.050Z,17.54
2017-06-18T05:36:52.607Z,17.56
2017-06-18T05:38:04.557Z,17.66
2017-06-18T05:39:16.798Z,17.68
2017-06-18T05:40:29.344Z,17.76
2017-06-18T05:41:41.854Z,17.82
2017-06-18T05:42:54.390Z,17.86
2017-06-18T05:44:06.621Z,17.8
2017-06-18T05:45:19.161Z,17.86
2017-06-18T05:46:31.711Z,17.87
2017-06-18T05:47:44.248Z,17.78
2017-06-18T05:48:56.769Z,17.73
2017-06-18T05:50:09.015Z,17.65
2017-06-18T05:51:21.564Z,17.59
2017-06-18T05:52:33.467Z,17.56
2017-06-18T05:53:46.003Z,17.56
2017-06-18T05:54:58.554Z,17.56
2017-06-18T05:56:11.070Z,17.56
2017-06-18T05:57:23.588Z,17.47
2017-06-18T05:58:35.533Z,17.47
2017-06-18T05:59:48.066Z,17.52
2017-06-18T06:01:00.312Z,17.39
2017-06-18T06:02:12.849Z,17.38
2017-06-18T06:03:25.667Z,17.49
2017-06-18T06:04:37.895Z,17.39
2017-06-18T06:05:50.417Z,17.39
2017-06-18T06:07:02.334Z,17.44
2017-06-18T06:08:14.575Z,17.41
2017-06-18T06:09:27.106Z,17.42
2017-06-18T06:10:39.322Z,17.46
2017-06-18T06:11:51.552Z,17.44
2017-06-18T06:13:03.742Z,17.53
2017-06-18T06:14:16.269Z,17.5
2017-06-18T06:15:28.793Z,17.54
2017-06-18T06:16:41.334Z,17.68
2017-06-18T06:17:53.575Z,17.68
2017-06-18T06:19:05.814Z,17.75
2017-06-18T06:20:18.047Z,17.86
2017-06-18T06:21:30.605Z,17.9
2017-06-18T06:22:43.114Z,18.18
2017-06-18T06:23:55.022Z,18.36
2017-06-18T06:25:07.880Z,18.76
2017-06-18T06:26:20.426Z,19.16
2017-06-18T06:27:32.985Z,19.52
2017-06-18T06:28:45.488Z,19.79
2017-06-18T06:29:58.010Z,20.27
2017-06-18T06:31:10.230Z,20.6
2017-06-18T06:32:22.432Z,20.8
2017-06-18T06:33:34.953Z,21.03
2017-06-18T06:34:47.488Z,21.32
2017-06-18T06:36:00.035Z,21.66
2017-06-18T06:37:12.578Z,21.94
2017-06-18T06:38:24.832Z,22.21
2017-06-18T06:39:37.380Z,22.52
2017-06-18T06:40:49.614Z,22.74
2017-06-18T06:42:01.839Z,23.01
2017-06-18T06:43:14.081Z,23.32
2017-06-18T06:44:26.333Z,23.73
2017-06-18T06:45:38.603Z,24.09
2017-06-18T06:46:51.170Z,24.37
2017-06-18T06:48:02.844Z,24.69
2017-06-18T06:49:14.788Z,24.97
2017-06-18T06:50:27.332Z,25.31
2017-06-18T06:51:39.564Z,25.67
2017-06-18T06:52:52.136Z,25.96
2017-06-18T06:54:04.684Z,26.27
2017-06-18T06:55:16.645Z,26.46
2017-06-18T06:56:28.862Z,26.79
2017-06-18T06:57:41.394Z,26.98
2017-06-18T06:58:53.340Z,27.28
2017-06-18T07:00:05.280Z,27.45
2017-06-18T07:01:17.832Z,27.66
2017-06-18T07:02:30.102Z,28
2017-06-18T07:03:42.071Z,28.16
2017-06-18T07:04:54.613Z,28.33
2017-06-18T07:06:07.157Z,28.57
2017-06-18T07:07:19.401Z,28.65
2017-06-18T07:08:32.246Z,28.84
2017-06-18T07:09:44.500Z,29
2017-06-18T07:10:56.467Z,29.03
2017-06-18T07:12:08.692Z,29.35
2017-06-18T07:13:20.930Z,29.44
2017-06-18T07:14:33.180Z,29.49
2017-06-18T07:15:45.729Z,29.68
2017-06-18T07:16:57.652Z,29.83
2017-06-18T07:18:09.899Z,29.86
2017-06-18T07:19:22.160Z,29.89
2017-06-18T07:20:34.110Z,29.87
2017-06-18T07:21:46.038Z,29.94
2017-06-18T07:22:58.585Z,30.08
2017-06-18T07:24:11.126Z,30.18
2017-06-18T07:25:23.689Z,30.39
2017-06-18T07:26:36.235Z,30.52
2017-06-18T07:27:47.881Z,30.65
2017-06-18T07:29:00.114Z,30.83
2017-06-18T07:30:12.384Z,30.96
2017-06-18T07:31:24.044Z,31.05
2017-06-18T07:32:36.568Z,31.1
2017-06-18T07:33:49.127Z,30.95
2017-06-18T07:35:01.710Z,30.89
2017-06-18T07:36:14.266Z,30.73
2017-06-18T07:37:26.824Z,30.89
2017-06-18T07:38:39.397Z,30.74
2017-06-18T07:39:51.919Z,30.93
2017-06-18T07:41:04.445Z,30.96
2017-06-18T07:42:16.990Z,31.05
2017-06-18T07:43:29.539Z,31.2
2017-06-18T07:44:42.113Z,31.17
2017-06-18T07:45:54.656Z,31.32
2017-06-18T07:47:07.199Z,31.36
2017-06-18T07:48:19.711Z,31.35
2017-06-18T07:49:31.966Z,31.44
2017-06-18T07:50:44.191Z,31.55
2017-06-18T07:51:56.750Z,31.54
2017-06-18T07:53:08.973Z,31.57
2017-06-18T07:54:21.225Z,31.57
2017-06-18T07:55:33.741Z,31.62
2017-06-18T07:56:45.687Z,31.59
2017-06-18T07:57:58.255Z,31.48
2017-06-18T07:59:10.800Z,31.48
2017-06-18T08:00:23.334Z,31.2
2017-06-18T08:01:35.895Z,31.13
2017-06-18T08:02:48.145Z,30.98
2017-06-18T08:04:00.384Z,30.95
2017-06-18T08:05:12.018Z,30.96
2017-06-18T08:06:24.584Z,30.96
2017-06-18T08:07:37.108Z,30.95
2017-06-18T08:08:49.645Z,30.91
2017-06-18T08:10:01.889Z,30.67
2017-06-18T08:11:14.471Z,30.61
2017-06-18T08:12:27.067Z,30.59
2017-06-18T08:13:39.326Z,30.58
2017-06-18T08:14:51.580Z,30.52
2017-06-18T08:16:03.804Z,30.39
2017-06-18T08:17:16.022Z,30.35
2017-06-18T08:18:28.567Z,30.23
2017-06-18T08:19:41.113Z,30.18
2017-06-18T08:20:53.634Z,30.13
2017-06-18T08:22:06.177Z,30.03
2017-06-18T08:23:18.704Z,29.99
2017-06-18T08:24:31.264Z,30.11
2017-06-18T08:25:43.818Z,30.36
2017-06-18T08:26:56.363Z,30.39
2017-06-18T08:28:08.605Z,30.51
2017-06-18T08:29:21.148Z,30.63
2017-06-18T08:30:33.697Z,30.71
2017-06-18T08:31:46.222Z,30.81
2017-06-18T08:32:58.768Z,30.99
2017-06-18T08:34:11.289Z,31.1
2017-06-18T08:35:23.831Z,31.2
2017-06-18T08:36:36.398Z,31.47
2017-06-18T08:37:48.951Z,31.63
2017-06-18T08:39:01.494Z,31.73
2017-06-18T08:40:13.760Z,31.77
2017-06-18T08:41:25.715Z,31.54
2017-06-18T08:42:38.261Z,31.52
2017-06-18T08:43:50.832Z,31.37
2017-06-18T08:45:03.097Z,31.36
2017-06-18T08:46:15.343Z,31.29
2017-06-18T08:47:27.922Z,31.14
2017-06-18T08:48:39.860Z,31.07
2017-06-18T08:49:52.439Z,31.17
2017-06-18T08:51:04.710Z,31.05
2017-06-18T08:52:17.019Z,31.08
2017-06-18T08:53:29.577Z,31.05
2017-06-18T08:54:42.165Z,31.2
2017-06-18T08:55:54.733Z,31.32
2017-06-18T08:57:07.333Z,31.42
2017-06-18T08:58:19.882Z,31.47
2017-06-18T08:59:32.445Z,31.51
2017-06-18T09:00:44.404Z,31.63
2017-06-18T09:01:56.953Z,31.69
2017-06-18T09:03:09.541Z,31.72
2017-06-18T09:04:21.787Z,31.78
2017-06-18T09:05:34.336Z,31.9
2017-06-18T09:06:46.608Z,31.92
2017-06-18T09:07:59.179Z,31.93
2017-06-18T09:09:11.139Z,31.92
2017-06-18T09:10:23.695Z,31.95
2017-06-18T09:11:36.283Z,32.04
2017-06-18T09:12:48.837Z,32.11
2017-06-18T09:14:01.407Z,32.17
2017-06-18T09:15:13.052Z,32.15
2017-06-18T09:16:25.598Z,32.2
2017-06-18T09:17:38.159Z,32.31
2017-06-18T09:18:50.710Z,32.34
2017-06-18T09:20:02.679Z,32.39
2017-06-18T09:21:14.958Z,32.45
2017-06-18T09:22:27.226Z,32.53
2017-06-18T09:23:39.775Z,32.57
2017-06-18T09:24:52.048Z,32.67
2017-06-18T09:26:04.635Z,32.67
2017-06-18T09:27:17.234Z,32.76
2017-06-18T09:28:29.484Z,32.72
2017-06-18T09:29:42.043Z,32.76
2017-06-18T09:30:53.974Z,32.88
2017-06-18T09:32:05.952Z,32.86
2017-06-18T09:33:18.217Z,32.72
2017-06-18T09:34:30.792Z,32.79
2017-06-18T09:35:42.755Z,32.93
2017-06-18T09:36:55.055Z,32.98
2017-06-18T09:38:07.327Z,33.12
2017-06-18T09:39:19.588Z,33.15
2017-06-18T09:40:32.167Z,33.23
2017-06-18T09:41:43.835Z,33.32
2017-06-18T09:42:56.085Z,33.42
2017-06-18T09:44:08.633Z,33.48
2017-06-18T09:45:20.898Z,33.48
2017-06-18T09:46:33.439Z,33.63
2017-06-18T09:47:46.006Z,33.69
2017-06-18T09:48:58.282Z,33.87
2017-06-18T09:50:10.833Z,34.06
2017-06-18T09:51:23.105Z,33.94
2017-06-18T09:52:35.074Z,33.95
2017-06-18T09:53:47.620Z,33.97
2017-06-18T09:55:00.182Z,33.95
2017-06-18T09:56:11.840Z,34.04
2017-06-18T09:57:24.403Z,34.13
2017-06-18T09:58:36.956Z,34.21
2017-06-18T09:59:49.217Z,34.4
2017-06-18T10:01:01.776Z,34.4
2017-06-18T10:02:14.361Z,34.56
2017-06-18T10:03:26.911Z,34.6
2017-06-18T10:04:39.153Z,34.62
2017-06-18T10:05:51.399Z,34.78
2017-06-18T10:07:03.979Z,34.7
2017-06-18T10:08:16.266Z,34.63
2017-06-18T10:09:28.833Z,34.79
2017-06-18T10:10:41.064Z,34.79
2017-06-18T10:11:53.331Z,34.93
2017-06-18T10:13:05.874Z,34.98
2017-06-18T10:14:18.116Z,35.12
2017-06-18T10:15:30.723Z,35.19
2017-06-18T10:16:43.009Z,35.08
2017-06-18T10:17:55.605Z,35.18
2017-06-18T10:19:07.928Z,35.3
2017-06-18T10:20:19.581Z,35.39
2017-06-18T10:21:32.127Z,35.53
2017-06-18T10:22:44.416Z,35.69
2017-06-18T10:23:56.985Z,35.52
2017-06-18T10:25:09.266Z,35.53
2017-06-18T10:26:21.830Z,35.6
2017-06-18T10:27:34.097Z,35.76
2017-06-18T10:28:46.347Z,35.87
2017-06-18T10:29:58.589Z,35.93
2017-06-18T10:31:10.563Z,36.05
2017-06-18T10:32:22.817Z,36.22
2017-06-18T10:33:35.080Z,36.29
2017-06-18T10:34:47.359Z,36.31
2017-06-18T10:35:59.330Z,36.32
2017-06-18T10:37:11.929Z,36.35
2017-06-18T10:38:24.486Z,36.54
2017-06-18T10:39:37.060Z,36.5
2017-06-18T10:40:49.635Z,36.6
2017-06-18T10:42:02.173Z,36.72
2017-06-18T10:43:14.420Z,36.78
2017-06-18T10:44:26.701Z,36.88
2017-06-18T10:45:39.269Z,37.01
2017-06-18T10:46:51.836Z,37.07
2017-06-18T10:48:04.082Z,37.04
2017-06-18T10:49:16.336Z,37.06
2017-06-18T10:50:28.595Z,37.11
2017-06-18T10:51:40.852Z,37.26
2017-06-18T10:52:53.436Z,37.36
2017-06-18T10:54:05.993Z,37.54
2017-06-18T10:55:17.965Z,37.64
2017-06-18T10:56:30.208Z,37.64
2017-06-18T10:57:42.773Z,37.6
2017-06-18T10:58:55.041Z,37.66
2017-06-18T11:00:07.059Z,37.72
2017-06-18T11:01:19.637Z,37.88
2017-06-18T11:02:31.887Z,37.94
2017-06-18T11:03:44.432Z,38.02
2017-06-18T11:04:56.678Z,38.05
2017-06-18T11:06:09.224Z,38.01
2017-06-18T11:07:21.448Z,37.97
2017-06-18T11:08:34.015Z,38.13
2017-06-18T11:09:46.569Z,38.22
2017-06-18T11:10:58.837Z,38.32
2017-06-18T11:12:11.432Z,38.29
2017-06-18T11:13:23.703Z,38.41
2017-06-18T11:14:35.677Z,38.44
2017-06-18T11:15:48.217Z,38.46
2017-06-18T11:17:00.780Z,38.54
2017-06-18T11:18:13.332Z,38.65
2017-06-18T11:19:25.600Z,38.73
2017-06-18T11:20:38.142Z,38.6
2017-06-18T11:21:50.702Z,38.82
2017-06-18T11:23:02.969Z,39.1
2017-06-18T11:24:14.673Z,39.23
2017-06-18T11:25:27.264Z,39.32
2017-06-18T11:26:39.823Z,39.14
2017-06-18T11:27:52.055Z,39.3
2017-06-18T11:29:04.321Z,39.37
2017-06-18T11:30:16.288Z,39.46
2017-06-18T11:31:28.839Z,39.56
2017-06-18T11:32:41.102Z,39.59
2017-06-18T11:33:53.680Z,39.45
2017-06-18T11:35:06.202Z,39.42
2017-06-18T11:36:18.447Z,39.48
2017-06-18T11:37:30.421Z,39.39
2017-06-18T11:38:43.013Z,39.05
2017-06-18T11:39:54.660Z,39
2017-06-18T11:41:07.212Z,38.91
2017-06-18T11:42:19.786Z,39.01
2017-06-18T11:43:32.348Z,39.04
2017-06-18T11:44:44.894Z,39.26
2017-06-18T11:45:57.415Z,39.25
2017-06-18T11:47:09.664Z,39.17
2017-06-18T11:48:21.952Z,38.88
2017-06-18T11:49:34.203Z,38.79
2017-06-18T11:50:46.769Z,38.72
2017-06-18T11:51:59.336Z,38.7
2017-06-18T11:53:11.890Z,38.84
2017-06-18T11:54:24.439Z,39.07
2017-06-18T11:55:36.699Z,39.14
2017-06-18T11:56:49.261Z,39.29
2017-06-18T11:58:01.816Z,39.34
2017-06-18T11:59:13.791Z,39.39
2017-06-18T12:00:26.362Z,39.27
2017-06-18T12:01:38.641Z,39.37
2017-06-18T12:02:50.878Z,39.37
2017-06-18T12:04:03.447Z,39.39
2017-06-18T12:05:15.731Z,39.48
2017-06-18T12:06:28.013Z,39.6
2017-06-18T12:07:40.568Z,39.67
2017-06-18T12:08:53.134Z,39.63
2017-06-18T12:10:05.687Z,39.61
2017-06-18T12:11:17.946Z,39.78
2017-06-18T12:12:30.502Z,39.86
2017-06-18T12:13:42.787Z,39.97
2017-06-18T12:14:55.065Z,39.94
2017-06-18T12:16:07.615Z,40.07
2017-06-18T12:17:20.183Z,40.2
2017-06-18T12:18:32.458Z,40.26
2017-06-18T12:19:45.004Z,40.35
2017-06-18T12:20:56.988Z,40.44
2017-06-18T12:22:08.945Z,40.23
2017-06-18T12:23:21.513Z,40.19
2017-06-18T12:24:34.076Z,40.2
2017-06-18T12:25:46.326Z,40.17
2017-06-18T12:26:58.576Z,40.23
2017-06-18T12:28:10.818Z,40.31
2017-06-18T12:29:23.392Z,40.34
2017-06-18T12:30:35.643Z,40.29
2017-06-18T12:31:47.902Z,40.34
2017-06-18T12:33:00.459Z,40.28
2017-06-18T12:34:13.030Z,40.16
2017-06-18T12:35:25.601Z,40.19
2017-06-18T12:36:38.147Z,40.19
2017-06-18T12:37:50.407Z,40.14
2017-06-18T12:39:02.653Z,40.05
2017-06-18T12:40:14.585Z,39.95
2017-06-18T12:41:26.831Z,39.79
2017-06-18T12:42:39.375Z,39.83
2017-06-18T12:43:51.972Z,39.98
2017-06-18T12:45:04.235Z,39.83
2017-06-18T12:46:16.490Z,39.98
2017-06-18T12:47:29.049Z,40.14
2017-06-18T12:48:41.331Z,40.26
2017-06-18T12:49:53.593Z,40.08
2017-06-18T12:51:06.140Z,40.22
2017-06-18T12:52:18.418Z,40.32
2017-06-18T12:53:30.966Z,40.44
2017-06-18T12:54:43.537Z,40.42
2017-06-18T12:55:55.804Z,40.44
2017-06-18T12:57:08.094Z,40.26
2017-06-18T12:58:19.753Z,40.28
2017-06-18T12:59:32.016Z,40.01
2017-06-18T13:00:44.264Z,39.97
2017-06-18T13:01:56.783Z,39.73
2017-06-18T13:03:08.750Z,39.71
2017-06-18T13:04:20.975Z,39.76
2017-06-18T13:05:33.537Z,39.73
2017-06-18T13:06:45.797Z,39.64
2017-06-18T13:07:58.389Z,39.6
2017-06-18T13:09:10.961Z,39.59
2017-06-18T13:10:23.228Z,39.38
2017-06-18T13:11:35.796Z,39.33
2017-06-18T13:12:47.774Z,39.37
2017-06-18T13:14:00.364Z,39.38
2017-06-18T13:15:12.312Z,39.23
2017-06-18T13:16:24.284Z,39.34
2017-06-18T13:17:36.262Z,39.04
2017-06-18T13:18:48.530Z,39.14
2017-06-18T13:20:00.202Z,39.07
2017-06-18T13:21:12.166Z,38.84
2017-06-18T13:22:24.112Z,38.62
2017-06-18T13:23:36.088Z,38.51
2017-06-18T13:24:48.650Z,38.32
2017-06-18T13:26:00.601Z,38.04
2017-06-18T13:27:12.239Z,37.88
2017-06-18T13:28:24.513Z,37.75
2017-06-18T13:29:36.492Z,37.53
2017-06-18T13:30:48.751Z,37.4
2017-06-18T13:32:00.706Z,37.37
2017-06-18T13:33:12.343Z,37.4
2017-06-18T13:34:24.593Z,37.47
2017-06-18T13:35:37.136Z,37.64
2017-06-18T13:36:49.384Z,37.73
2017-06-18T13:38:01.663Z,37.86
2017-06-18T13:39:13.322Z,37.9
2017-06-18T13:40:25.597Z,38.02
2017-06-18T13:41:37.841Z,37.91
2017-06-18T13:42:50.385Z,37.92
2017-06-18T13:44:02.344Z,37.83
2017-06-18T13:45:14.340Z,37.97
2017-06-18T13:46:26.929Z,37.86
2017-06-18T13:47:39.195Z,37.44
2017-06-18T13:48:51.747Z,37.33
2017-06-18T13:50:04.025Z,36.87
2017-06-18T13:51:15.674Z,36.67
2017-06-18T13:52:28.228Z,36.5
2017-06-18T13:53:40.185Z,36.59
2017-06-18T13:54:52.120Z,36.48
2017-06-18T13:56:04.070Z,36.38
2017-06-18T13:57:15.727Z,36.44
2017-06-18T13:58:28.008Z,36.59
2017-06-18T13:59:39.957Z,36.53
2017-06-18T14:00:52.488Z,36.63
2017-06-18T14:02:04.483Z,36.66
2017-06-18T14:03:16.143Z,36.73
2017-06-18T14:04:28.717Z,36.72
2017-06-18T14:05:41.259Z,36.85
2017-06-18T14:06:53.229Z,36.65
2017-06-18T14:08:05.812Z,36.73
2017-06-18T14:09:17.782Z,36.87
2017-06-18T14:10:29.146Z,36.65
2017-06-18T14:11:41.414Z,36.63
2017-06-18T14:12:53.370Z,36.69
2017-06-18T14:14:05.033Z,36.51
2017-06-18T14:15:16.684Z,36.65
2017-06-18T14:16:29.214Z,36.67
2017-06-18T14:17:41.497Z,36.73
2017-06-18T14:18:54.043Z,36.85
2017-06-18T14:20:06.293Z,36.92
2017-06-18T14:21:18.531Z,37
2017-06-18T14:22:30.486Z,37.11
2017-06-18T14:23:42.726Z,37.14
2017-06-18T14:24:54.672Z,37.14
2017-06-18T14:26:07.224Z,37.18
2017-06-18T14:27:19.161Z,36.94
2017-06-18T14:28:31.406Z,36.84
2017-06-18T14:29:43.738Z,36.78
2017-06-18T14:30:56.006Z,36.69
2017-06-18T14:32:08.580Z,36.6
2017-06-18T14:33:21.151Z,36.41
2017-06-18T14:34:33.422Z,36.36
2017-06-18T14:35:45.986Z,36.41
2017-06-18T14:36:57.915Z,36.39
2017-06-18T14:38:10.174Z,36.33
2017-06-18T14:39:22.423Z,36.2
2017-06-18T14:40:34.697Z,35.84
2017-06-18T14:41:46.661Z,35.68
2017-06-18T14:42:59.207Z,35.41
2017-06-18T14:44:10.864Z,35.27
2017-06-18T14:45:22.807Z,35.18
2017-06-18T14:46:35.072Z,35
2017-06-18T14:47:47.317Z,34.96
2017-06-18T14:48:59.865Z,34.93
2017-06-18T14:50:12.133Z,34.83
2017-06-18T14:51:24.382Z,34.62
2017-06-18T14:52:36.637Z,34.25
2017-06-18T14:53:49.204Z,34.04
2017-06-18T14:55:01.420Z,33.88
2017-06-18T14:56:13.363Z,33.48
2017-06-18T14:57:25.020Z,33.16
2017-06-18T14:58:36.983Z,32.98
2017-06-18T14:59:49.236Z,32.49
2017-06-18T15:01:01.800Z,32.42
2017-06-18T15:02:14.342Z,32.08
2017-06-18T15:03:26.600Z,31.93
2017-06-18T15:04:39.145Z,31.66
2017-06-18T15:05:50.811Z,31.57
2017-06-18T15:07:02.779Z,31.37
2017-06-18T15:08:15.025Z,31.18
2017-06-18T15:09:27.272Z,31.05
2017-06-18T15:10:39.796Z,30.91
2017-06-18T15:11:52.363Z,30.77
2017-06-18T15:13:04.889Z,30.65
2017-06-18T15:14:17.384Z,30.46
2017-06-18T15:15:29.334Z,30.35
2017-06-18T15:16:41.277Z,30.2
2017-06-18T15:17:53.818Z,30.01
2017-06-18T15:19:06.043Z,29.83
2017-06-18T15:20:17.982Z,29.61
2017-06-18T15:21:30.260Z,29.53
2017-06-18T15:22:42.531Z,29.35
2017-06-18T15:23:54.770Z,29.16
2017-06-18T15:25:06.694Z,29.09
2017-06-18T15:26:18.670Z,28.93
2017-06-18T15:27:30.932Z,28.83
2017-06-18T15:28:43.153Z,28.75
2017-06-18T15:29:55.426Z,28.75
2017-06-18T15:31:07.377Z,28.67
2017-06-18T15:32:19.915Z,28.62
2017-06-18T15:33:32.143Z,28.64
2017-06-18T15:34:44.718Z,28.52